createdAt,value
2022-10-05T00:01:53.405Z,68.05
2022-10-05T00:04:23.532Z,68.21
2022-10-05T00:06:56.749Z,68.26
2022-10-05T00:09:24.330Z,68.12
2022-10-05T00:11:51.910Z,68.08
2022-10-05T00:14:31.655Z,68.16
2022-10-05T00:16:59.141Z,68.53
2022-10-05T00:19:32.796Z,68.54
2022-10-05T00:22:06.518Z,68.50
2022-10-05T00:24:33.713Z,68.65
2022-10-05T00:27:02.226Z,68.71
2022-10-05T00:29:29.349Z,68.66
2022-10-05T00:31:58.201Z,68.49
2022-10-05T00:34:25.885Z,68.70
2022-10-05T00:36:52.914Z,69.04
2022-10-05T00:39:20.237Z,68.80
2022-10-05T00:42:16.055Z,68.92
2022-10-05T00:45:13.269Z,68.99
2022-10-05T00:47:49.429Z,68.80
2022-10-05T00:50:36.626Z,69.05
2022-10-05T00:53:16.035Z,69.05
2022-10-05T00:55:58.286Z,69.06
2022-10-05T00:58:26.595Z,69.18
2022-10-05T01:01:22.069Z,69.25
2022-10-05T01:04:14.158Z,69.22
2022-10-05T01:07:00.315Z,69.65
2022-10-05T01:09:38.167Z,69.72
2022-10-05T01:12:37.763Z,69.65
2022-10-05T01:15:21.145Z,69.99
2022-10-05T01:18:14.449Z,69.95
2022-10-05T01:21:02.856Z,69.95
2022-10-05T01:24:02.090Z,70.14
2022-10-05T01:27:08.880Z,70.13
2022-10-05T01:29:52.142Z,70.31
2022-10-05T01:32:39.413Z,70.49
2022-10-05T01:35:12.644Z,70.12
2022-10-05T01:37:45.940Z,70.44
2022-10-05T01:40:31.746Z,70.55
2022-10-05T01:43:17.462Z,70.62
2022-10-05T01:45:50.526Z,70.53
2022-10-05T01:48:17.541Z,70.87
2022-10-05T01:51:06.537Z,70.67
2022-10-05T01:53:56.017Z,70.74
2022-10-05T01:57:00.879Z,71.07
2022-10-05T02:00:07.908Z,70.74
2022-10-05T02:02:44.928Z,71.17
2022-10-05T02:05:20.442Z,71.11
2022-10-05T02:08:16.398Z,70.90
2022-10-05T02:11:03.097Z,70.96
2022-10-05T02:13:34.357Z,71.13
2022-10-05T02:16:07.520Z,71.35
2022-10-05T02:18:43.788Z,71.00
2022-10-05T02:21:11.302Z,71.45
2022-10-05T02:23:41.839Z,71.04
2022-10-05T02:26:11.575Z,71.60
2022-10-05T02:28:48.576Z,71.06
2022-10-05T02:31:29.666Z,71.44
2022-10-05T02:34:24.722Z,71.39
2022-10-05T02:37:21.550Z,71.47
2022-10-05T02:40:01.620Z,71.41
2022-10-05T02:42:56.551Z,71.69
2022-10-05T02:46:08.015Z,71.44
2022-10-05T02:49:18.021Z,71.96
2022-10-05T02:52:16.795Z,71.56
2022-10-05T02:55:19.512Z,72.10
2022-10-05T02:57:55.787Z,71.94
2022-10-05T03:00:27.176Z,72.04
2022-10-05T03:03:28.272Z,71.88
2022-10-05T03:06:00.733Z,71.98
2022-10-05T03:08:44.951Z,72.33
2022-10-05T03:11:54.625Z,72.26
2022-10-05T03:14:58.264Z,71.91
2022-10-05T03:17:35.029Z,72.21
2022-10-05T03:20:22.889Z,71.89
2022-10-05T03:22:59.080Z,72.30
2022-10-05T03:25:41.422Z,72.24
2022-10-05T03:28:25.255Z,72.24
2022-10-05T03:31:03.299Z,72.33
2022-10-05T03:33:56.830Z,72.40
2022-10-05T03:36:38.846Z,71.93
2022-10-05T03:39:17.691Z,72.05
2022-10-05T03:41:56.173Z,71.92
2022-10-05T03:44:43.404Z,71.86
2022-10-05T03:47:42.985Z,71.77
2022-10-05T03:50:34.959Z,71.96
2022-10-05T03:53:19.293Z,71.93
2022-10-05T03:55:59.005Z,71.66
2022-10-05T03:58:31.957Z,71.86
2022-10-05T04:01:05.792Z,71.81
2022-10-05T04:03:42.354Z,71.17
2022-10-05T04:06:22.670Z,71.12
2022-10-05T04:09:02.292Z,71.25
2022-10-05T04:11:36.000Z,71.22
2022-10-05T04:14:07.528Z,71.01
2022-10-05T04:17:12.273Z,71.34
2022-10-05T04:19:45.288Z,71.37
2022-10-05T04:22:43.394Z,71.41
2022-10-05T04:25:19.494Z,71.27
2022-10-05T04:28:06.331Z,71.04
2022-10-05T04:30:38.872Z,71.13
2022-10-05T04:33:09.545Z,70.91
2022-10-05T04:36:13.299Z,70.70
2022-10-05T04:38:40.284Z,70.81
2022-10-05T04:41:33.087Z,70.88
2022-10-05T04:44:17.526Z,71.09
2022-10-05T04:47:02.316Z,71.37
2022-10-05T04:49:48.432Z,71.17
2022-10-05T04:52:27.699Z,71.23
2022-10-05T04:55:04.665Z,71.52
2022-10-05T04:57:45.206Z,71.58
2022-10-05T05:00:25.098Z,71.36
2022-10-05T05:03:15.649Z,71.32
2022-10-05T05:06:15.288Z,71.33
2022-10-05T05:08:53.357Z,71.53
2022-10-05T05:11:52.934Z,71.05
2022-10-05T05:14:44.662Z,68.36
2022-10-05T05:17:13.238Z,63.35
2022-10-05T05:20:21.017Z,62.46
2022-10-05T05:22:57.633Z,60.63
2022-10-05T05:25:36.821Z,58.70
2022-10-05T05:28:20.610Z,55.69
2022-10-05T05:30:57.430Z,52.53
2022-10-05T05:33:41.289Z,50.92
2022-10-05T05:36:22.858Z,48.65
2022-10-05T05:39:49.352Z,46.14
2022-10-05T05:42:56.625Z,43.66
2022-10-05T05:45:40.754Z,42.66
2022-10-05T05:48:26.822Z,43.48
2022-10-05T05:51:13.131Z,43.17
2022-10-05T05:53:59.214Z,40.94
2022-10-05T05:56:34.855Z,39.59
2022-10-05T05:59:16.401Z,38.66
2022-10-05T06:01:53.082Z,38.01
2022-10-05T06:04:31.458Z,36.94
2022-10-05T06:07:03.943Z,36.43
2022-10-05T06:09:38.134Z,36.63
2022-10-05T06:12:38.556Z,36.66
2022-10-05T06:15:48.100Z,41.71
2022-10-05T06:18:21.459Z,43.27
2022-10-05T06:21:02.468Z,42.05
2022-10-05T06:23:46.665Z,43.97
2022-10-05T06:26:21.457Z,43.71
2022-10-05T06:28:59.382Z,45.96
2022-10-05T06:31:41.897Z,46.54
2022-10-05T06:34:27.960Z,46.83
2022-10-05T06:37:11.063Z,46.33
2022-10-05T06:39:52.152Z,44.95
2022-10-05T06:42:34.722Z,45.11
2022-10-05T06:45:45.596Z,44.36
2022-10-05T06:48:41.862Z,45.61
2022-10-05T06:51:52.088Z,46.70
2022-10-05T06:54:50.151Z,47.06
2022-10-05T06:57:22.291Z,47.02
2022-10-05T06:59:58.086Z,45.38
2022-10-05T07:02:39.262Z,46.75
2022-10-05T07:05:28.714Z,45.87
2022-10-05T07:08:00.584Z,46.36
2022-10-05T07:10:37.457Z,47.04
2022-10-05T07:13:36.623Z,45.67
2022-10-05T07:16:38.724Z,47.11
2022-10-05T07:19:22.349Z,47.88
2022-10-05T07:22:40.729Z,47.82
2022-10-05T07:25:28.413Z,49.50
2022-10-05T07:28:05.211Z,49.29
2022-10-05T07:30:49.082Z,51.43
2022-10-05T07:33:27.240Z,52.99
2022-10-05T07:36:54.405Z,53.86
2022-10-05T07:39:59.222Z,55.91
2022-10-05T07:42:50.483Z,56.27
2022-10-05T07:45:29.604Z,57.42
2022-10-05T07:48:33.572Z,58.15
2022-10-05T07:51:20.045Z,60.01
2022-10-05T07:54:25.896Z,61.25
2022-10-05T07:56:59.056Z,59.87
2022-10-05T07:59:37.292Z,61.16
2022-10-05T08:02:22.993Z,62.68
2022-10-05T08:05:02.655Z,62.66
2022-10-05T08:07:34.786Z,61.60
2022-10-05T08:10:22.007Z,62.93
2022-10-05T08:12:59.122Z,61.84
2022-10-05T08:15:43.184Z,62.23
2022-10-05T08:18:25.399Z,61.90
2022-10-05T08:20:58.238Z,61.90
2022-10-05T08:23:38.780Z,62.99
2022-10-05T08:26:27.315Z,59.36
2022-10-05T08:29:30.026Z,57.20
2022-10-05T08:32:30.022Z,56.61
2022-10-05T08:35:35.899Z,57.09
2022-10-05T08:38:10.734Z,57.17
2022-10-05T08:41:01.114Z,58.72
2022-10-05T08:43:59.010Z,58.95
2022-10-05T08:46:47.667Z,59.39
2022-10-05T08:49:23.828Z,58.79
2022-10-05T08:52:12.304Z,58.60
2022-10-05T08:54:47.723Z,59.12
2022-10-05T08:57:29.931Z,59.51
2022-10-05T09:00:26.072Z,58.82
2022-10-05T09:03:08.850Z,59.63
2022-10-05T09:05:42.300Z,59.74
2022-10-05T09:08:27.773Z,59.85
2022-10-05T09:11:17.309Z,60.30
2022-10-05T09:14:14.838Z,60.38
2022-10-05T09:16:50.828Z,60.32
2022-10-05T09:19:42.884Z,59.71
2022-10-05T09:22:33.636Z,59.43
2022-10-05T09:25:24.144Z,59.00
2022-10-05T09:27:59.046Z,58.97
2022-10-05T09:30:42.969Z,59.07
2022-10-05T09:33:25.935Z,59.50
2022-10-05T09:36:15.901Z,58.74
2022-10-05T09:39:20.125Z,59.42
2022-10-05T09:42:22.392Z,58.05
2022-10-05T09:45:26.711Z,58.54
2022-10-05T09:48:20.506Z,57.88
2022-10-05T09:50:50.268Z,58.69
2022-10-05T09:54:05.658Z,58.98
2022-10-05T09:56:56.658Z,59.40
2022-10-05T09:59:39.602Z,59.68
2022-10-05T10:02:17.153Z,58.96
2022-10-05T10:05:09.387Z,59.78
2022-10-05T10:08:10.449Z,58.32
2022-10-05T10:10:37.846Z,57.87
2022-10-05T10:13:13.692Z,57.93
2022-10-05T10:15:59.787Z,56.83
2022-10-05T10:18:40.901Z,55.86
2022-10-05T10:21:29.630Z,55.32
2022-10-05T10:24:10.663Z,54.98
2022-10-05T10:26:49.853Z,55.12
2022-10-05T10:29:38.232Z,55.23
2022-10-05T10:32:05.496Z,54.12
2022-10-05T10:35:14.350Z,52.71
2022-10-05T10:38:11.983Z,53.86
2022-10-05T10:40:56.322Z,53.85
2022-10-05T10:44:00.358Z,55.41
2022-10-05T10:46:48.962Z,55.00
2022-10-05T10:49:34.416Z,55.71
2022-10-05T10:52:19.329Z,54.96
2022-10-05T10:55:31.219Z,55.08
2022-10-05T10:58:37.937Z,53.95
2022-10-05T11:01:28.935Z,52.85
2022-10-05T11:04:22.870Z,53.92
2022-10-05T11:07:37.544Z,53.67
2022-10-05T11:10:29.530Z,54.09
2022-10-05T11:13:21.810Z,53.17
2022-10-05T11:15:55.390Z,53.94
2022-10-05T11:18:42.321Z,53.55
2022-10-05T11:21:26.514Z,53.11
2022-10-05T11:24:23.029Z,54.39
2022-10-05T11:30:17.056Z,54.77
2022-10-05T11:32:47.014Z,54.55
2022-10-05T11:35:41.617Z,54.99
2022-10-05T11:38:46.281Z,54.21
2022-10-05T11:41:22.773Z,54.43
2022-10-05T11:44:08.138Z,53.62
2022-10-05T11:46:38.317Z,53.54
2022-10-05T11:49:20.483Z,53.25
2022-10-05T11:51:52.663Z,52.46
2022-10-05T11:55:09.421Z,52.96
2022-10-05T11:57:50.466Z,51.90
2022-10-05T12:00:19.066Z,52.67
2022-10-05T12:03:00.583Z,53.32
2022-10-05T12:05:42.067Z,54.31
2022-10-05T12:08:35.966Z,53.61
2022-10-05T12:11:08.792Z,53.66
2022-10-05T12:13:56.272Z,55.46
2022-10-05T12:16:35.040Z,55.03
2022-10-05T12:19:29.890Z,54.71
2022-10-05T12:22:04.327Z,55.95
2022-10-05T12:24:37.287Z,53.94
2022-10-05T12:27:25.510Z,54.44
2022-10-05T12:30:11.703Z,54.81
2022-10-05T12:33:01.903Z,54.62
2022-10-05T12:35:50.242Z,55.24
2022-10-05T12:38:46.775Z,54.96
2022-10-05T12:41:19.929Z,55.60
2022-10-05T12:44:09.259Z,54.14
2022-10-05T12:47:11.233Z,53.21
2022-10-05T12:49:44.046Z,54.65
2022-10-05T12:52:32.233Z,53.87
2022-10-05T12:55:29.104Z,54.28
2022-10-05T12:58:19.114Z,53.73
2022-10-05T13:01:15.202Z,54.69
2022-10-05T13:04:17.801Z,53.09
2022-10-05T13:07:08.562Z,53.93
2022-10-05T13:10:04.295Z,53.94
2022-10-05T13:12:41.671Z,53.57
2022-10-05T13:15:36.360Z,53.36
2022-10-05T13:18:29.249Z,53.56
2022-10-05T13:21:18.692Z,52.55
2022-10-05T13:24:07.401Z,53.65
2022-10-05T13:26:37.981Z,52.12
2022-10-05T13:29:13.327Z,53.25
2022-10-05T13:32:13.984Z,53.43
2022-10-05T13:34:50.673Z,52.36
2022-10-05T13:37:38.551Z,52.27
2022-10-05T13:40:24.955Z,52.51
2022-10-05T13:43:00.931Z,53.55
2022-10-05T13:45:55.701Z,51.95
2022-10-05T13:48:37.011Z,51.53
2022-10-05T13:51:16.236Z,52.40
2022-10-05T13:53:56.178Z,52.08
2022-10-05T13:56:31.199Z,52.00
2022-10-05T13:59:11.986Z,51.44
2022-10-05T14:01:49.555Z,51.71
2022-10-05T14:04:29.835Z,52.04
2022-10-05T14:06:57.432Z,51.45
2022-10-05T14:09:35.130Z,51.02
2022-10-05T14:12:05.021Z,51.91
2022-10-05T14:14:42.714Z,52.00
2022-10-05T14:17:32.186Z,50.93
2022-10-05T14:20:03.612Z,51.49
2022-10-05T14:22:40.866Z,52.37
2022-10-05T14:25:07.930Z,51.62
2022-10-05T14:27:49.246Z,51.40
2022-10-05T14:30:16.410Z,51.13
2022-10-05T14:33:03.748Z,51.51
2022-10-05T14:35:45.061Z,51.59
2022-10-05T14:38:32.037Z,51.52
2022-10-05T14:41:17.652Z,52.18
2022-10-05T14:44:12.578Z,51.72
2022-10-05T14:46:52.711Z,52.12
2022-10-05T14:49:30.671Z,51.97
2022-10-05T14:51:58.863Z,52.11
2022-10-05T14:54:25.959Z,52.22
2022-10-05T14:57:26.297Z,52.61
2022-10-05T15:00:19.043Z,51.71
2022-10-05T15:02:49.133Z,52.91
2022-10-05T15:05:26.894Z,51.07
2022-10-05T15:08:01.864Z,51.79
2022-10-05T15:10:29.755Z,53.12
2022-10-05T15:13:11.204Z,52.45
2022-10-05T15:16:00.404Z,52.05
2022-10-05T15:18:37.560Z,51.54
2022-10-05T15:21:42.455Z,51.99
2022-10-05T15:24:20.416Z,53.66
2022-10-05T15:26:55.042Z,51.99
2022-10-05T15:29:55.130Z,51.76
2022-10-05T15:32:42.776Z,52.24
2022-10-05T15:35:26.465Z,52.20
2022-10-05T15:38:12.226Z,53.01
2022-10-05T15:40:59.576Z,53.79
2022-10-05T15:43:46.137Z,53.85
2022-10-05T15:46:34.586Z,54.56
2022-10-05T15:49:19.978Z,54.71
2022-10-05T15:52:02.022Z,55.04
2022-10-05T15:55:06.524Z,55.23
2022-10-05T15:57:39.104Z,55.06
2022-10-05T16:00:18.963Z,54.86
2022-10-05T16:02:55.225Z,55.41
2022-10-05T16:06:01.986Z,54.84
2022-10-05T16:09:06.125Z,55.67
2022-10-05T16:12:30.395Z,55.64
2022-10-05T16:15:06.839Z,55.82
2022-10-05T16:17:54.337Z,54.97
2022-10-05T16:20:35.964Z,55.59
2022-10-05T16:23:27.967Z,56.65
2022-10-05T16:26:09.315Z,56.65
2022-10-05T16:29:08.850Z,55.70
2022-10-05T16:31:54.657Z,55.48
2022-10-05T16:34:50.454Z,55.29
2022-10-05T16:37:47.360Z,56.02
2022-10-05T16:40:23.623Z,56.17
2022-10-05T16:43:15.896Z,55.89
2022-10-05T16:45:52.234Z,57.15
2022-10-05T16:48:37.059Z,56.71
2022-10-05T16:51:24.342Z,56.67
2022-10-05T16:54:03.584Z,56.13
2022-10-05T16:56:45.593Z,55.63
2022-10-05T16:59:41.678Z,55.75
2022-10-05T17:02:27.625Z,56.34
2022-10-05T17:05:38.843Z,56.21
2022-10-05T17:08:41.418Z,56.93
2022-10-05T17:11:20.207Z,57.12
2022-10-05T17:14:32.053Z,57.01
2022-10-05T17:17:28.818Z,57.17
2022-10-05T17:20:23.835Z,56.37
2022-10-05T17:22:55.897Z,56.58
2022-10-05T17:25:47.898Z,56.88
2022-10-05T17:28:51.836Z,55.79
2022-10-05T17:31:22.887Z,55.56
2022-10-05T17:33:59.285Z,55.75
2022-10-05T17:36:50.642Z,55.34
2022-10-05T17:39:49.292Z,55.73
2022-10-05T17:42:31.682Z,56.09
2022-10-05T17:45:20.064Z,55.95
2022-10-05T17:48:05.323Z,56.35
2022-10-05T17:51:07.399Z,56.92
2022-10-05T17:53:53.144Z,56.02
2022-10-05T17:56:22.753Z,56.28
2022-10-05T17:58:54.719Z,56.53
2022-10-05T18:01:33.996Z,56.71
2022-10-05T18:04:13.419Z,56.78
2022-10-05T18:06:48.256Z,56.99
2022-10-05T18:09:21.175Z,57.36
2022-10-05T18:12:19.231Z,57.03
2022-10-05T18:14:55.349Z,57.16
2022-10-05T18:17:45.191Z,56.84
2022-10-05T18:20:22.014Z,56.74
2022-10-05T18:22:51.231Z,56.73
2022-10-05T18:25:39.709Z,57.00
2022-10-05T18:28:25.770Z,57.70
2022-10-05T18:31:30.808Z,58.19
2022-10-05T18:34:13.482Z,58.38
2022-10-05T18:36:59.113Z,58.96
2022-10-05T18:39:58.415Z,59.23
2022-10-05T18:43:00.616Z,59.58
2022-10-05T18:45:37.926Z,59.75
2022-10-05T18:48:50.049Z,60.12
2022-10-05T18:51:53.912Z,60.21
2022-10-05T18:54:32.280Z,60.17
2022-10-05T18:57:07.607Z,60.03
2022-10-05T19:00:27.595Z,60.00
2022-10-05T19:03:01.071Z,60.08
2022-10-05T19:05:54.491Z,60.03
2022-10-05T19:08:40.799Z,60.37
2022-10-05T19:11:36.488Z,60.22
2022-10-05T19:14:31.674Z,60.23
2022-10-05T19:17:09.792Z,60.48
2022-10-05T19:20:01.964Z,60.40
2022-10-05T19:23:12.342Z,60.38
2022-10-05T19:25:53.217Z,60.41
2022-10-05T19:28:20.838Z,60.32
2022-10-05T19:31:29.032Z,60.67
2022-10-05T19:34:33.401Z,60.68
2022-10-05T19:37:13.309Z,60.73
2022-10-05T19:39:55.787Z,60.50
2022-10-05T19:42:28.971Z,60.63
2022-10-05T19:44:57.099Z,60.60
2022-10-05T19:47:44.896Z,60.80
2022-10-05T19:50:28.442Z,60.62
2022-10-05T19:53:08.337Z,60.48
2022-10-05T19:55:41.845Z,60.42
2022-10-05T19:58:24.780Z,60.55
2022-10-05T20:01:04.575Z,60.65
2022-10-05T20:03:37.123Z,60.56
2022-10-05T20:06:07.134Z,60.61
2022-10-05T20:08:54.502Z,60.25
2022-10-05T20:11:23.869Z,60.35
2022-10-05T20:13:53.927Z,60.74
2022-10-05T20:16:53.192Z,60.67
2022-10-05T20:19:49.878Z,60.80
2022-10-05T20:22:39.982Z,60.72
2022-10-05T20:25:23.826Z,61.07
2022-10-05T20:27:57.907Z,61.13
2022-10-05T20:30:29.269Z,60.85
2022-10-05T20:33:03.834Z,61.12
2022-10-05T20:35:32.397Z,60.75
2022-10-05T20:38:00.359Z,61.06
2022-10-05T20:40:29.830Z,61.03
2022-10-05T20:42:58.428Z,61.00
2022-10-05T20:45:26.100Z,60.80
2022-10-05T20:47:53.347Z,60.77
2022-10-05T20:50:22.494Z,60.87
2022-10-05T20:52:49.783Z,60.50
2022-10-05T20:55:18.007Z,60.69
2022-10-05T20:57:46.346Z,60.51
2022-10-05T21:00:13.981Z,60.29
2022-10-05T21:02:41.252Z,60.32
2022-10-05T21:05:09.059Z,60.00
2022-10-05T21:07:36.214Z,59.89
2022-10-05T21:10:04.299Z,60.01
2022-10-05T21:12:33.018Z,59.84
2022-10-05T21:15:00.555Z,59.94
2022-10-05T21:17:27.843Z,59.81
2022-10-05T21:19:55.080Z,60.06
2022-10-05T21:22:22.620Z,60.03
2022-10-05T21:24:49.724Z,59.96
2022-10-05T21:27:17.103Z,60.07
2022-10-05T21:29:45.539Z,60.03
2022-10-05T21:32:12.620Z,59.74
2022-10-05T21:34:40.540Z,59.61
2022-10-05T21:37:08.297Z,59.63
2022-10-05T21:39:36.858Z,59.65
2022-10-05T21:42:04.297Z,59.84
2022-10-05T21:44:31.428Z,59.80
2022-10-05T21:46:58.544Z,59.82
2022-10-05T21:49:27.220Z,59.67
2022-10-05T21:51:54.664Z,60.04
2022-10-05T21:54:22.978Z,60.04
2022-10-05T21:56:52.837Z,60.01
2022-10-05T21:59:22.662Z,59.84
2022-10-05T22:01:49.832Z,60.16
2022-10-05T22:04:17.037Z,60.08
2022-10-05T22:06:44.401Z,60.37
2022-10-05T22:09:12.278Z,60.52
2022-10-05T22:11:39.379Z,60.55
2022-10-05T22:14:06.624Z,60.61
2022-10-05T22:16:37.447Z,61.00
2022-10-05T22:19:07.142Z,61.31
2022-10-05T22:21:41.806Z,61.38
2022-10-05T22:24:11.798Z,61.46
2022-10-05T22:26:42.013Z,61.32
2022-10-05T22:29:10.500Z,61.81
2022-10-05T22:31:40.531Z,61.78
2022-10-05T22:34:07.803Z,61.82
2022-10-05T22:36:36.094Z,61.77
2022-10-05T22:39:03.963Z,62.29
2022-10-05T22:41:31.022Z,62.24
2022-10-05T22:43:58.217Z,62.56
2022-10-05T22:46:25.392Z,62.97
2022-10-05T22:48:52.626Z,62.96
2022-10-05T22:51:19.698Z,63.21
2022-10-05T22:53:46.985Z,62.77
2022-10-05T22:56:14.360Z,63.00
2022-10-05T22:58:42.582Z,62.77
2022-10-05T23:01:12.240Z,63.04
2022-10-05T23:03:39.627Z,62.95
2022-10-05T23:06:09.284Z,63.12
2022-10-05T23:08:39.467Z,63.24
2022-10-05T23:11:11.616Z,63.35
2022-10-05T23:13:39.468Z,63.70
2022-10-05T23:16:08.636Z,63.74
2022-10-05T23:18:35.950Z,63.87
2022-10-05T23:21:03.866Z,63.86
2022-10-05T23:23:31.008Z,63.89
2022-10-05T23:26:02.062Z,63.97
2022-10-05T23:28:30.269Z,63.82
2022-10-05T23:31:05.846Z,64.24
2022-10-05T23:33:34.118Z,63.87
2022-10-05T23:36:10.252Z,64.01
2022-10-05T23:38:37.772Z,64.20
2022-10-05T23:41:05.917Z,64.57
2022-10-05T23:43:33.674Z,64.32
2022-10-05T23:46:01.404Z,64.61
2022-10-05T23:48:30.824Z,64.59
2022-10-05T23:50:58.612Z,64.67
2022-10-05T23:53:26.763Z,64.98
2022-10-05T23:55:54.516Z,64.72
2022-10-05T23:58:23.127Z,64.91
